createdAt,value
2023-05-19T00:00:08.235Z,13.39
2023-05-19T00:01:08.245Z,13.38
2023-05-19T00:02:08.251Z,13.35
2023-05-19T00:03:08.322Z,13.31
2023-05-19T00:04:08.207Z,13.28
2023-05-19T00:05:08.207Z,13.28
2023-05-19T00:06:08.274Z,13.25
2023-05-19T00:07:08.175Z,13.25
2023-05-19T00:08:08.165Z,13.24
2023-05-19T00:09:08.164Z,13.24
2023-05-19T00:10:08.129Z,13.21
2023-05-19T00:11:08.112Z,13.19
2023-05-19T00:12:08.114Z,13.19
2023-05-19T00:13:08.093Z,13.17
2023-05-19T00:14:08.088Z,13.16
2023-05-19T00:15:08.093Z,13.14
2023-05-19T00:16:08.125Z,13.12
2023-05-19T00:17:08.140Z,13.13
2023-05-19T00:18:08.089Z,13.10
2023-05-19T00:19:08.096Z,13.09
2023-05-19T00:20:08.017Z,13.07
2023-05-19T00:21:08.016Z,13.07
2023-05-19T00:22:08.003Z,13.09
2023-05-19T00:23:08.000Z,13.07
2023-05-19T00:24:07.992Z,13.06
2023-05-19T00:25:07.978Z,13.04
2023-05-19T00:26:07.985Z,13.04
2023-05-19T00:27:07.954Z,13.03
2023-05-19T00:28:07.938Z,13.04
2023-05-19T00:29:07.924Z,13.06
2023-05-19T00:30:07.945Z,13.06
2023-05-19T00:31:07.904Z,13.07
2023-05-19T00:32:08.047Z,13.04
2023-05-19T00:33:08.017Z,13.07
2023-05-19T00:34:07.869Z,13.07
2023-05-19T00:35:07.873Z,13.06
2023-05-19T00:36:07.867Z,13.06
2023-05-19T00:37:07.859Z,13.06
2023-05-19T00:38:07.827Z,13.06
2023-05-19T00:39:07.825Z,13.03
2023-05-19T00:40:07.801Z,13.01
2023-05-19T00:41:07.820Z,13.04
2023-05-19T00:42:07.806Z,13.06
2023-05-19T00:43:07.778Z,13.04
2023-05-19T00:44:07.754Z,13.04
2023-05-19T00:45:07.784Z,13.04
2023-05-19T00:46:07.833Z,13.03
2023-05-19T00:47:07.814Z,13.04
2023-05-19T00:48:07.804Z,13.03
2023-05-19T00:49:07.720Z,13.04
2023-05-19T00:50:07.721Z,13.04
2023-05-19T00:51:07.704Z,13.04
2023-05-19T00:52:07.701Z,13.03
2023-05-19T00:53:07.674Z,13.03
2023-05-19T00:54:07.657Z,13.03
2023-05-19T00:55:07.647Z,13.01
2023-05-19T00:56:07.646Z,13.01
2023-05-19T00:57:07.626Z,12.96
2023-05-19T00:58:07.627Z,12.98
2023-05-19T00:59:07.631Z,12.94
2023-05-19T01:00:07.895Z,12.92
2023-05-19T01:01:07.696Z,12.91
2023-05-19T01:02:07.575Z,12.89
2023-05-19T01:03:07.685Z,12.88
2023-05-19T01:04:07.724Z,12.85
2023-05-19T01:05:07.556Z,12.85
2023-05-19T01:06:07.631Z,12.81
2023-05-19T01:07:07.517Z,12.80
2023-05-19T01:08:07.511Z,12.80
2023-05-19T01:09:07.483Z,12.80
2023-05-19T01:10:07.494Z,12.81
2023-05-19T01:11:07.475Z,12.81
2023-05-19T01:12:07.457Z,12.80
2023-05-19T01:13:07.441Z,12.80
2023-05-19T01:14:07.457Z,12.80
2023-05-19T01:15:07.430Z,12.80
2023-05-19T01:16:07.501Z,12.79
2023-05-19T01:17:07.399Z,12.77
2023-05-19T01:18:07.547Z,12.74
2023-05-19T01:19:07.424Z,12.74
2023-05-19T01:20:07.393Z,12.71
2023-05-19T01:21:07.371Z,12.73
2023-05-19T01:22:07.366Z,12.74
2023-05-19T01:23:07.346Z,12.74
2023-05-19T01:24:07.348Z,12.73
2023-05-19T01:25:07.332Z,12.73
2023-05-19T01:26:07.316Z,12.73
2023-05-19T01:27:07.321Z,12.70
2023-05-19T01:28:07.288Z,12.73
2023-05-19T01:29:07.279Z,12.71
2023-05-19T01:30:07.294Z,12.69
2023-05-19T01:31:07.258Z,12.66
2023-05-19T01:32:07.331Z,12.59
2023-05-19T01:33:07.359Z,12.58
2023-05-19T01:34:07.268Z,12.56
2023-05-19T01:35:07.239Z,12.55
2023-05-19T01:36:07.226Z,12.55
2023-05-19T01:37:07.187Z,12.54
2023-05-19T01:38:07.227Z,12.51
2023-05-19T01:39:07.168Z,12.51
2023-05-19T01:40:07.204Z,12.51
2023-05-19T01:41:07.138Z,12.52
2023-05-19T01:42:07.139Z,12.54
2023-05-19T01:43:07.132Z,12.54
2023-05-19T01:44:07.116Z,12.55
2023-05-19T01:45:07.104Z,12.55
2023-05-19T01:46:07.126Z,12.55
2023-05-19T01:47:07.092Z,12.54
2023-05-19T01:48:09.251Z,12.55
2023-05-19T01:49:07.054Z,12.54
2023-05-19T01:50:07.048Z,12.55
2023-05-19T01:51:07.065Z,12.54
2023-05-19T01:52:07.025Z,12.55
2023-05-19T01:53:07.036Z,12.56
2023-05-19T01:54:07.009Z,12.55
2023-05-19T01:55:07.000Z,12.55
2023-05-19T01:56:07.005Z,12.54
2023-05-19T01:57:06.974Z,12.55
2023-05-19T01:58:06.973Z,12.54
2023-05-19T01:59:06.950Z,12.56
2023-05-19T02:00:06.971Z,12.56
2023-05-19T02:01:06.962Z,12.56
2023-05-19T02:02:06.940Z,12.58
2023-05-19T02:03:06.925Z,12.58
2023-05-19T02:04:06.948Z,12.58
2023-05-19T02:05:06.884Z,12.56
2023-05-19T02:06:06.876Z,12.59
2023-05-19T02:07:06.862Z,12.58
2023-05-19T02:08:06.862Z,12.59
2023-05-19T02:09:06.857Z,12.61
2023-05-19T02:10:06.837Z,12.61
2023-05-19T02:11:06.826Z,12.59
2023-05-19T02:12:06.828Z,12.59
2023-05-19T02:13:06.808Z,12.61
2023-05-19T02:14:06.814Z,12.58
2023-05-19T02:15:06.817Z,12.55
2023-05-19T02:16:06.841Z,12.55
2023-05-19T02:17:06.759Z,12.55
2023-05-19T02:18:06.859Z,12.55
2023-05-19T02:19:06.831Z,12.54
2023-05-19T02:20:06.770Z,12.54
2023-05-19T02:21:06.711Z,12.55
2023-05-19T02:22:06.705Z,12.54
2023-05-19T02:23:06.695Z,12.56
2023-05-19T02:24:06.715Z,12.54
2023-05-19T02:25:06.668Z,12.56
2023-05-19T02:26:06.662Z,12.56
2023-05-19T02:27:06.704Z,12.55
2023-05-19T02:28:06.647Z,12.55
2023-05-19T02:29:06.626Z,12.55
2023-05-19T02:30:06.628Z,12.56
2023-05-19T02:31:06.607Z,12.55
2023-05-19T02:32:06.629Z,12.54
2023-05-19T02:33:06.723Z,12.54
2023-05-19T02:34:06.580Z,12.52
2023-05-19T02:35:06.592Z,12.54
2023-05-19T02:36:06.552Z,12.55
2023-05-19T02:37:06.554Z,12.56
2023-05-19T02:38:06.545Z,12.55
2023-05-19T02:39:06.509Z,12.55
2023-05-19T02:40:06.501Z,12.55
2023-05-19T02:41:06.507Z,12.55
2023-05-19T02:42:06.507Z,12.54
2023-05-19T02:43:06.491Z,12.55
2023-05-19T02:44:06.475Z,12.54
2023-05-19T02:45:06.454Z,12.54
2023-05-19T02:46:06.485Z,12.52
2023-05-19T02:47:06.446Z,12.52
2023-05-19T02:48:06.462Z,12.52
2023-05-19T02:49:06.404Z,12.52
2023-05-19T02:50:06.401Z,12.52
2023-05-19T02:51:06.387Z,12.51
2023-05-19T02:52:06.375Z,12.52
2023-05-19T02:53:06.367Z,12.52
2023-05-19T02:54:06.356Z,12.52
2023-05-19T02:55:06.331Z,12.51
2023-05-19T02:56:06.342Z,12.52
2023-05-19T02:57:06.332Z,12.51
2023-05-19T02:58:06.312Z,12.52
2023-05-19T02:59:06.291Z,12.51
2023-05-19T03:00:06.298Z,12.51
2023-05-19T03:01:06.342Z,12.52
2023-05-19T03:02:06.380Z,12.51
2023-05-19T03:03:06.351Z,12.51
2023-05-19T03:04:06.312Z,12.49
2023-05-19T03:05:06.233Z,12.49
2023-05-19T03:06:06.240Z,12.48
2023-05-19T03:07:06.218Z,12.48
2023-05-19T03:08:06.242Z,12.49
2023-05-19T03:09:06.205Z,12.48
2023-05-19T03:10:06.180Z,12.49
2023-05-19T03:11:06.169Z,12.49
2023-05-19T03:12:06.183Z,12.49
2023-05-19T03:13:06.147Z,12.51
2023-05-19T03:14:06.141Z,12.46
2023-05-19T03:15:06.133Z,12.44
2023-05-19T03:16:06.145Z,12.41
2023-05-19T03:17:06.108Z,12.43
2023-05-19T03:18:06.106Z,12.41
2023-05-19T03:19:06.135Z,12.41
2023-05-19T03:20:06.070Z,12.43
2023-05-19T03:21:06.057Z,12.41
2023-05-19T03:22:06.052Z,12.41
2023-05-19T03:23:06.038Z,12.40
2023-05-19T03:24:06.030Z,12.38
2023-05-19T03:25:06.036Z,12.37
2023-05-19T03:26:06.013Z,12.36
2023-05-19T03:27:05.999Z,12.34
2023-05-19T03:28:06.030Z,12.33
2023-05-19T03:29:05.979Z,12.33
2023-05-19T03:30:06.779Z,12.30
2023-05-19T03:31:05.946Z,12.31
2023-05-19T03:32:05.996Z,12.30
2023-05-19T03:33:05.985Z,12.30
2023-05-19T03:34:05.925Z,12.31
2023-05-19T03:35:05.906Z,12.26
2023-05-19T03:36:05.907Z,12.23
2023-05-19T03:37:05.910Z,12.21
2023-05-19T03:38:05.891Z,12.22
2023-05-19T03:39:05.867Z,12.22
2023-05-19T03:40:05.877Z,12.21
2023-05-19T03:41:05.850Z,12.18
2023-05-19T03:42:05.855Z,12.15
2023-05-19T03:43:05.824Z,12.13
2023-05-19T03:44:05.834Z,12.11
2023-05-19T03:45:05.804Z,12.08
2023-05-19T03:46:05.824Z,12.11
2023-05-19T03:47:05.780Z,12.07
2023-05-19T03:48:05.805Z,12.05
2023-05-19T03:49:05.761Z,12.03
2023-05-19T03:50:05.760Z,12.03
2023-05-19T03:51:05.742Z,12.00
2023-05-19T03:52:05.741Z,12.00
2023-05-19T03:53:05.719Z,11.97
2023-05-19T03:54:05.762Z,11.96
2023-05-19T03:55:05.699Z,11.90
2023-05-19T03:56:05.687Z,11.87
2023-05-19T03:57:05.674Z,11.84
2023-05-19T03:58:05.668Z,11.84
2023-05-19T03:59:05.650Z,11.82
2023-05-19T04:00:05.663Z,11.82
2023-05-19T04:01:05.642Z,11.84
2023-05-19T04:02:05.653Z,11.84
2023-05-19T04:03:05.708Z,11.84
2023-05-19T04:04:05.631Z,11.82
2023-05-19T04:05:05.597Z,11.82
2023-05-19T04:06:05.581Z,11.81
2023-05-19T04:07:05.562Z,11.82
2023-05-19T04:08:05.565Z,11.79
2023-05-19T04:09:05.544Z,11.79
2023-05-19T04:10:05.543Z,11.78
2023-05-19T04:11:05.523Z,11.79
2023-05-19T04:12:05.514Z,11.78
2023-05-19T04:13:05.530Z,11.78
2023-05-19T04:14:05.495Z,11.78
2023-05-19T04:15:06.210Z,11.78
2023-05-19T04:16:05.501Z,11.78
2023-05-19T04:17:05.466Z,11.77
2023-05-19T04:18:05.464Z,11.75
2023-05-19T04:19:05.487Z,11.75
2023-05-19T04:20:05.425Z,11.70
2023-05-19T04:21:05.422Z,11.67
2023-05-19T04:22:05.403Z,11.66
2023-05-19T04:23:05.405Z,11.66
2023-05-19T04:24:05.407Z,11.64
2023-05-19T04:25:05.376Z,11.62
2023-05-19T04:26:05.383Z,11.62
2023-05-19T04:27:05.344Z,11.63
2023-05-19T04:28:05.336Z,11.63
2023-05-19T04:29:05.327Z,11.63
2023-05-19T04:30:05.325Z,11.62
2023-05-19T04:31:05.359Z,11.62
2023-05-19T04:32:05.296Z,11.62
2023-05-19T04:33:05.361Z,11.62
2023-05-19T04:34:05.280Z,11.64
2023-05-19T04:35:05.255Z,11.66
2023-05-19T04:36:05.275Z,11.67
2023-05-19T04:37:05.251Z,11.69
2023-05-19T04:38:05.240Z,11.70
2023-05-19T04:39:05.216Z,11.72
2023-05-19T04:40:05.213Z,11.72
2023-05-19T04:41:05.218Z,11.74
2023-05-19T04:42:05.221Z,11.74
2023-05-19T04:43:05.177Z,11.75
2023-05-19T04:44:05.163Z,11.77
2023-05-19T04:45:05.162Z,11.78
2023-05-19T04:46:05.514Z,11.79
2023-05-19T04:47:05.561Z,11.79
2023-05-19T04:48:05.766Z,11.81
2023-05-19T04:49:05.141Z,11.79
2023-05-19T04:50:06.360Z,11.82
2023-05-19T04:51:05.087Z,11.82
2023-05-19T04:52:05.094Z,11.84
2023-05-19T04:53:05.069Z,11.85
2023-05-19T04:54:05.052Z,11.90
2023-05-19T04:55:05.109Z,11.94
2023-05-19T04:56:05.477Z,11.94
2023-05-19T04:57:05.055Z,11.97
2023-05-19T04:58:05.059Z,11.97
2023-05-19T04:59:05.063Z,12.00
2023-05-19T05:00:05.066Z,12.01
2023-05-19T05:01:05.008Z,12.03
2023-05-19T05:02:05.072Z,12.05
2023-05-19T05:03:05.181Z,12.11
2023-05-19T05:04:05.158Z,12.11
2023-05-19T05:05:05.042Z,12.12
2023-05-19T05:06:04.974Z,12.12
2023-05-19T05:07:04.940Z,12.12
2023-05-19T05:08:04.922Z,12.12
2023-05-19T05:09:04.982Z,12.12
2023-05-19T05:10:04.980Z,12.12
2023-05-19T05:11:04.947Z,12.15
2023-05-19T05:12:04.998Z,12.16
2023-05-19T05:13:05.086Z,12.18
2023-05-19T05:14:04.963Z,12.18
2023-05-19T05:15:04.861Z,12.21
2023-05-19T05:16:04.859Z,12.22
2023-05-19T05:17:04.800Z,12.22
2023-05-19T05:18:04.838Z,12.25
2023-05-19T05:19:04.818Z,12.29
2023-05-19T05:20:04.768Z,12.29
2023-05-19T05:21:04.769Z,12.30
2023-05-19T05:22:04.748Z,12.30
2023-05-19T05:23:04.843Z,12.33
2023-05-19T05:24:04.772Z,12.33
2023-05-19T05:25:04.808Z,12.36
2023-05-19T05:26:04.721Z,12.38
2023-05-19T05:27:04.747Z,12.41
2023-05-19T05:28:04.811Z,12.43
2023-05-19T05:29:04.968Z,12.44
2023-05-19T05:30:04.887Z,12.44
2023-05-19T05:31:05.990Z,12.44
2023-05-19T05:32:04.789Z,12.46
2023-05-19T05:33:05.661Z,12.46
2023-05-19T05:34:04.732Z,12.48
2023-05-19T05:35:05.355Z,12.51
2023-05-19T05:36:04.745Z,12.52
2023-05-19T05:37:04.890Z,12.54
2023-05-19T05:38:04.664Z,12.54
2023-05-19T05:39:05.478Z,12.55
2023-05-19T05:40:04.746Z,12.56
2023-05-19T05:41:05.509Z,12.55
2023-05-19T05:42:04.631Z,12.56
2023-05-19T05:43:05.912Z,12.56
2023-05-19T05:44:04.686Z,12.58
2023-05-19T05:45:04.660Z,12.59
2023-05-19T05:46:04.549Z,12.58
2023-05-19T05:47:05.303Z,12.62
2023-05-19T05:48:04.548Z,12.62
2023-05-19T05:49:04.625Z,12.62
2023-05-19T05:50:04.606Z,12.62
2023-05-19T05:51:04.475Z,12.62
2023-05-19T05:52:06.551Z,12.63
2023-05-19T05:53:04.599Z,12.67
2023-05-19T05:54:04.496Z,12.69
2023-05-19T05:55:04.436Z,12.70
2023-05-19T05:56:04.412Z,12.73
2023-05-19T05:57:04.515Z,12.73
2023-05-19T05:58:04.507Z,12.76
2023-05-19T05:59:04.357Z,12.76
2023-05-19T06:00:04.346Z,12.76
2023-05-19T06:01:04.339Z,12.77
2023-05-19T06:02:04.358Z,12.79
2023-05-19T06:03:04.394Z,12.81
2023-05-19T06:04:04.314Z,12.81
2023-05-19T06:05:04.322Z,12.84
2023-05-19T06:06:04.413Z,12.85
2023-05-19T06:07:04.299Z,12.87
2023-05-19T06:08:04.252Z,12.87
2023-05-19T06:09:04.253Z,12.88
2023-05-19T06:10:04.253Z,12.89
2023-05-19T06:11:04.261Z,12.92
2023-05-19T06:12:04.223Z,12.94
2023-05-19T06:13:04.220Z,12.96
2023-05-19T06:14:04.204Z,12.98
2023-05-19T06:15:04.194Z,12.99
2023-05-19T06:16:04.225Z,13.03
2023-05-19T06:17:04.167Z,13.04
2023-05-19T06:18:04.212Z,13.07
2023-05-19T06:19:04.185Z,13.10
2023-05-19T06:20:04.175Z,13.13
2023-05-19T06:21:04.223Z,13.16
2023-05-19T06:22:04.126Z,13.17
2023-05-19T06:23:04.136Z,13.22
2023-05-19T06:24:04.130Z,13.27
2023-05-19T06:25:04.121Z,13.29
2023-05-19T06:26:04.118Z,13.35
2023-05-19T06:27:04.403Z,13.36
2023-05-19T06:28:04.116Z,13.39
2023-05-19T06:29:04.157Z,13.41
2023-05-19T06:30:04.094Z,13.46
2023-05-19T06:31:04.047Z,13.47
2023-05-19T06:32:04.049Z,13.51
2023-05-19T06:33:04.075Z,13.53
2023-05-19T06:34:04.166Z,13.55
2023-05-19T06:35:03.980Z,13.57
2023-05-19T06:36:03.978Z,13.62
2023-05-19T06:37:04.223Z,13.63
2023-05-19T06:38:04.013Z,13.65
2023-05-19T06:39:04.013Z,13.68
2023-05-19T06:40:05.024Z,13.69
2023-05-19T06:41:04.317Z,13.72
2023-05-19T06:42:04.529Z,13.73
2023-05-19T06:43:03.949Z,13.79
2023-05-19T06:44:04.070Z,13.80
2023-05-19T06:45:04.163Z,13.83
2023-05-19T06:46:04.899Z,13.84
2023-05-19T06:47:04.040Z,13.87
2023-05-19T06:48:03.946Z,13.90
2023-05-19T06:49:03.881Z,13.91
2023-05-19T06:50:03.902Z,13.98
2023-05-19T06:51:03.902Z,14.02
2023-05-19T06:52:04.891Z,14.04
2023-05-19T06:53:03.805Z,14.11
2023-05-19T06:54:06.356Z,14.13
2023-05-19T06:55:03.842Z,14.20
2023-05-19T06:56:04.534Z,14.23
2023-05-19T06:57:03.851Z,14.29
2023-05-19T06:58:04.538Z,14.35
2023-05-19T06:59:03.897Z,14.41
2023-05-19T07:00:04.561Z,14.48
2023-05-19T07:01:03.737Z,14.56
2023-05-19T07:02:04.136Z,14.61
2023-05-19T07:03:03.796Z,14.67
2023-05-19T07:04:04.807Z,14.74
2023-05-19T07:05:03.755Z,14.82
2023-05-19T07:06:05.671Z,14.87
2023-05-19T07:07:03.636Z,14.95
2023-05-19T07:08:03.812Z,15.01
2023-05-19T07:09:03.602Z,15.05
2023-05-19T07:10:04.383Z,15.12
2023-05-19T07:11:03.599Z,15.20
2023-05-19T07:12:04.293Z,15.28
2023-05-19T07:13:03.594Z,15.35
2023-05-19T07:14:04.258Z,15.43
2023-05-19T07:15:03.533Z,15.46
2023-05-19T07:16:03.583Z,15.52
2023-05-19T07:17:03.522Z,15.56
2023-05-19T07:18:04.229Z,15.60
2023-05-19T07:19:03.546Z,15.66
2023-05-19T07:20:03.526Z,15.71
2023-05-19T07:21:03.510Z,15.74
2023-05-19T07:22:03.514Z,15.74
2023-05-19T07:23:03.466Z,15.78
2023-05-19T07:24:03.511Z,15.80
2023-05-19T07:25:03.445Z,15.84
2023-05-19T07:26:03.482Z,15.86
2023-05-19T07:27:03.410Z,15.89
2023-05-19T07:28:03.978Z,15.92
2023-05-19T07:29:03.379Z,15.93
2023-05-19T07:30:03.377Z,15.91
2023-05-19T07:31:03.363Z,15.91
2023-05-19T07:32:03.468Z,15.93
2023-05-19T07:33:03.372Z,15.92
2023-05-19T07:34:03.343Z,15.96
2023-05-19T07:35:03.325Z,15.98
2023-05-19T07:36:03.411Z,16.03
2023-05-19T07:37:03.362Z,16.03
2023-05-19T07:38:03.300Z,16.06
2023-05-19T07:39:03.390Z,16.06
2023-05-19T07:40:03.305Z,16.06
2023-05-19T07:41:03.303Z,16.10
2023-05-19T07:42:03.264Z,16.11
2023-05-19T07:43:03.285Z,16.13
2023-05-19T07:44:03.376Z,16.17
2023-05-19T07:45:03.382Z,16.22
2023-05-19T07:46:03.290Z,16.25
2023-05-19T07:47:03.219Z,16.30
2023-05-19T07:48:03.323Z,16.34
2023-05-19T07:49:03.174Z,16.41
2023-05-19T07:50:03.211Z,16.48
2023-05-19T07:51:03.218Z,16.55
2023-05-19T07:52:03.149Z,16.60
2023-05-19T07:53:03.177Z,16.63
2023-05-19T07:54:03.123Z,16.70
2023-05-19T07:55:03.291Z,16.77
2023-05-19T07:56:03.153Z,16.82
2023-05-19T07:57:03.107Z,16.92
2023-05-19T07:58:03.079Z,16.98
2023-05-19T07:59:03.115Z,17.03
2023-05-19T08:00:03.144Z,17.05
2023-05-19T08:01:03.089Z,17.07
2023-05-19T08:02:03.068Z,17.07
2023-05-19T08:03:03.139Z,17.07
2023-05-19T08:04:03.117Z,17.05
2023-05-19T08:05:04.598Z,17.02
2023-05-19T08:06:03.014Z,17.02
2023-05-19T08:07:03.956Z,17.02
2023-05-19T08:08:03.091Z,17.00
2023-05-19T08:09:03.735Z,17.00
2023-05-19T08:10:03.093Z,17.02
2023-05-19T08:11:03.097Z,17.00
2023-05-19T08:12:02.915Z,16.99
2023-05-19T08:13:03.060Z,16.95
2023-05-19T08:14:02.926Z,16.91
2023-05-19T08:15:03.918Z,16.88
2023-05-19T08:16:03.049Z,16.82
2023-05-19T08:17:03.588Z,16.80
2023-05-19T08:18:02.902Z,16.75
2023-05-19T08:19:03.315Z,16.72
2023-05-19T08:20:02.888Z,16.70
2023-05-19T08:21:03.022Z,16.69
2023-05-19T08:22:02.904Z,16.67
2023-05-19T08:23:03.078Z,16.67
2023-05-19T08:24:02.837Z,16.67
2023-05-19T08:25:02.953Z,16.69
2023-05-19T08:26:02.804Z,16.69
2023-05-19T08:27:02.770Z,16.67
2023-05-19T08:28:02.769Z,16.69
2023-05-19T08:29:02.918Z,16.70
2023-05-19T08:30:03.023Z,16.69
2023-05-19T08:31:02.867Z,16.73
2023-05-19T08:32:02.834Z,16.77
2023-05-19T08:33:02.801Z,16.77
2023-05-19T08:34:02.699Z,16.78
2023-05-19T08:35:02.745Z,16.81
2023-05-19T08:36:02.867Z,16.81
2023-05-19T08:37:02.704Z,16.85
2023-05-19T08:38:02.801Z,16.85
2023-05-19T08:39:02.652Z,16.87
2023-05-19T08:40:02.669Z,16.90
2023-05-19T08:41:02.628Z,16.88
2023-05-19T08:42:02.666Z,16.85
2023-05-19T08:43:02.669Z,16.84
2023-05-19T08:44:02.910Z,16.85
2023-05-19T08:45:02.572Z,16.91
2023-05-19T08:46:02.569Z,16.92
2023-05-19T08:47:02.809Z,16.95
2023-05-19T08:48:02.649Z,16.95
2023-05-19T08:49:02.601Z,16.96
2023-05-19T08:50:02.533Z,16.98
2023-05-19T08:51:02.511Z,16.96
2023-05-19T08:52:02.618Z,16.99
2023-05-19T08:53:02.524Z,17.00
2023-05-19T08:54:02.759Z,17.00
2023-05-19T08:55:02.493Z,17.02
2023-05-19T08:56:02.498Z,17.05
2023-05-19T08:57:02.501Z,17.05
2023-05-19T08:58:02.476Z,17.06
2023-05-19T08:59:02.430Z,17.07
2023-05-19T09:00:02.528Z,17.12
2023-05-19T09:01:02.419Z,17.12
2023-05-19T09:02:02.478Z,17.15
2023-05-19T09:03:17.581Z,17.15
2023-05-19T09:04:03.600Z,17.17
2023-05-19T09:05:02.523Z,17.21
2023-05-19T09:06:02.447Z,17.21
2023-05-19T09:07:02.385Z,17.27
2023-05-19T09:08:02.420Z,17.32
2023-05-19T09:09:02.328Z,17.35
2023-05-19T09:10:02.368Z,17.36
2023-05-19T09:11:02.406Z,17.36
2023-05-19T09:12:02.272Z,17.38
2023-05-19T09:13:02.268Z,17.36
2023-05-19T09:14:02.312Z,17.35
2023-05-19T09:15:02.247Z,17.33
2023-05-19T09:16:02.305Z,17.36
2023-05-19T09:17:02.357Z,17.36
2023-05-19T09:18:02.282Z,17.40
2023-05-19T09:19:02.193Z,17.43
2023-05-19T09:20:02.875Z,17.46
2023-05-19T09:21:02.181Z,17.49
2023-05-19T09:22:03.164Z,17.53
2023-05-19T09:23:02.140Z,17.55
2023-05-19T09:24:03.650Z,17.55
2023-05-19T09:25:02.145Z,17.58
2023-05-19T09:26:02.824Z,17.58
2023-05-19T09:27:02.137Z,17.62
2023-05-19T09:28:02.462Z,17.63
2023-05-19T09:29:02.158Z,17.65
2023-05-19T09:30:02.793Z,17.63
2023-05-19T09:31:02.213Z,17.66
2023-05-19T09:32:02.804Z,17.70
2023-05-19T09:33:02.117Z,17.68
2023-05-19T09:34:02.208Z,17.74
2023-05-19T09:35:02.112Z,17.79
2023-05-19T09:36:02.100Z,17.81
2023-05-19T09:37:01.991Z,17.83
2023-05-19T09:38:02.016Z,17.80
2023-05-19T09:39:02.056Z,17.79
2023-05-19T09:40:02.010Z,17.81
2023-05-19T09:41:02.060Z,17.81
2023-05-19T09:42:01.939Z,17.81
2023-05-19T09:43:01.941Z,17.80
2023-05-19T09:44:01.935Z,17.84
2023-05-19T09:45:02.150Z,17.87
2023-05-19T09:46:01.950Z,17.87
2023-05-19T09:47:01.888Z,17.89
2023-05-19T09:48:01.972Z,17.92
2023-05-19T09:49:03.252Z,17.95
2023-05-19T09:50:04.293Z,17.92
2023-05-19T09:51:05.113Z,17.91
2023-05-19T09:52:03.626Z,17.92
2023-05-19T09:53:02.579Z,17.94
2023-05-19T09:54:01.973Z,17.98
2023-05-19T09:55:01.887Z,18.01
2023-05-19T09:56:01.829Z,18.04
2023-05-19T09:57:01.833Z,18.07
2023-05-19T09:58:01.862Z,18.10
2023-05-19T09:59:01.806Z,18.13
2023-05-19T10:00:01.753Z,18.19
2023-05-19T10:01:01.868Z,18.20
2023-05-19T10:02:01.821Z,18.29
2023-05-19T10:03:01.829Z,18.32
2023-05-19T10:04:03.657Z,18.34
2023-05-19T10:05:01.872Z,18.35
2023-05-19T10:06:01.785Z,18.35
2023-05-19T10:07:01.708Z,18.39
2023-05-19T10:08:01.792Z,18.42
2023-05-19T10:09:01.687Z,18.46
2023-05-19T10:10:01.693Z,18.49
2023-05-19T10:11:01.685Z,18.49
2023-05-19T10:12:01.785Z,18.51
2023-05-19T10:13:01.728Z,18.56
2023-05-19T10:14:01.648Z,18.57
2023-05-19T10:15:01.611Z,18.60
2023-05-19T10:16:01.961Z,18.65
2023-05-19T10:17:01.758Z,18.66
2023-05-19T10:18:01.618Z,18.66
2023-05-19T10:19:01.593Z,18.66
2023-05-19T10:20:01.527Z,18.64
2023-05-19T10:21:01.531Z,18.60
2023-05-19T10:22:01.500Z,18.59
2023-05-19T10:23:01.500Z,18.64
2023-05-19T10:24:01.473Z,18.66
2023-05-19T10:25:01.510Z,18.71
2023-05-19T10:26:01.453Z,18.74
2023-05-19T10:27:01.452Z,18.78
2023-05-19T10:28:01.431Z,18.82
2023-05-19T10:29:01.421Z,18.82
2023-05-19T10:30:01.461Z,18.79
2023-05-19T10:31:01.396Z,18.74
2023-05-19T10:32:01.417Z,18.65
2023-05-19T10:33:01.650Z,18.59
2023-05-19T10:34:01.473Z,18.53
2023-05-19T10:35:02.914Z,18.46
2023-05-19T10:36:01.418Z,18.41
2023-05-19T10:37:01.480Z,18.35
2023-05-19T10:38:01.440Z,18.32
2023-05-19T10:39:02.142Z,18.28
2023-05-19T10:40:01.740Z,18.28
2023-05-19T10:41:01.432Z,18.31
2023-05-19T10:42:01.295Z,18.39
2023-05-19T10:43:01.399Z,18.46
2023-05-19T10:44:01.260Z,18.54
2023-05-19T10:45:01.669Z,18.56
2023-05-19T10:46:02.667Z,18.56
2023-05-19T10:47:01.721Z,18.59
2023-05-19T10:48:01.281Z,18.59
2023-05-19T10:49:01.315Z,18.56
2023-05-19T10:50:01.287Z,18.54
2023-05-19T10:51:01.423Z,18.53
2023-05-19T10:52:01.302Z,18.56
2023-05-19T10:53:01.278Z,18.60
2023-05-19T10:54:01.193Z,18.62
2023-05-19T10:55:01.291Z,18.62
2023-05-19T10:56:01.233Z,18.60
2023-05-19T10:57:01.138Z,18.60
2023-05-19T10:58:01.165Z,18.57
2023-05-19T10:59:01.109Z,18.51
2023-05-19T11:00:01.109Z,18.47
2023-05-19T11:01:01.109Z,18.49
2023-05-19T11:02:01.178Z,18.44
2023-05-19T11:03:01.109Z,18.44
2023-05-19T11:04:01.079Z,18.44
2023-05-19T11:05:01.036Z,18.41
2023-05-19T11:06:01.041Z,18.38
2023-05-19T11:07:03.702Z,18.36
2023-05-19T11:08:01.116Z,18.35
2023-05-19T11:09:01.038Z,18.34
2023-05-19T11:10:01.229Z,18.32
2023-05-19T11:11:01.009Z,18.31
2023-05-19T11:12:01.186Z,18.32
2023-05-19T11:13:01.016Z,18.28
2023-05-19T11:14:01.008Z,18.28
2023-05-19T11:15:01.774Z,18.28
2023-05-19T11:16:00.952Z,18.26
2023-05-19T11:17:01.473Z,18.28
2023-05-19T11:18:01.004Z,18.28
2023-05-19T11:19:00.932Z,18.28
2023-05-19T11:20:00.974Z,18.26
2023-05-19T11:21:01.002Z,18.29
2023-05-19T11:22:00.968Z,18.31
2023-05-19T11:23:01.053Z,18.34
2023-05-19T11:24:00.977Z,18.38
2023-05-19T11:25:00.869Z,18.41
2023-05-19T11:26:00.812Z,18.42
2023-05-19T11:27:00.854Z,18.47
2023-05-19T11:28:02.101Z,18.47
2023-05-19T11:29:01.109Z,18.46
2023-05-19T11:30:02.218Z,18.49
2023-05-19T11:31:00.933Z,18.51
2023-05-19T11:32:01.413Z,18.54
2023-05-19T11:33:01.791Z,18.56
2023-05-19T11:34:00.869Z,18.59
2023-05-19T11:35:00.707Z,18.62
2023-05-19T11:36:00.702Z,18.66
2023-05-19T11:37:00.683Z,18.64
2023-05-19T11:38:00.685Z,18.64
2023-05-19T11:39:00.670Z,18.65
2023-05-19T11:40:00.673Z,18.64
2023-05-19T11:41:00.653Z,18.66
2023-05-19T11:42:00.656Z,18.68
2023-05-19T11:43:00.668Z,18.66
2023-05-19T11:44:00.669Z,18.65
2023-05-19T11:45:00.593Z,18.66
2023-05-19T11:46:00.781Z,18.66
2023-05-19T11:47:00.652Z,18.68
2023-05-19T11:48:03.017Z,18.69
2023-05-19T11:49:00.597Z,18.72
2023-05-19T11:50:02.310Z,18.74
2023-05-19T11:51:00.654Z,18.75
2023-05-19T11:52:01.252Z,18.76
2023-05-19T11:53:00.550Z,18.78
2023-05-19T11:54:01.218Z,18.78
2023-05-19T11:55:00.518Z,18.82
2023-05-19T11:56:00.464Z,18.84
2023-05-19T11:57:00.447Z,18.90
2023-05-19T11:58:04.678Z,18.91
2023-05-19T11:59:01.447Z,18.96
2023-05-19T12:00:00.471Z,18.99
2023-05-19T12:01:00.430Z,18.99
2023-05-19T12:02:01.391Z,18.99
2023-05-19T12:03:00.465Z,19.01
2023-05-19T12:04:00.456Z,18.96
2023-05-19T12:05:00.466Z,18.90
2023-05-19T12:06:00.500Z,18.84
2023-05-19T12:07:00.406Z,18.86
2023-05-19T12:08:00.355Z,18.84
2023-05-19T12:09:00.337Z,18.84
2023-05-19T12:10:00.360Z,18.84
2023-05-19T12:11:00.344Z,18.83
2023-05-19T12:12:00.336Z,18.84
2023-05-19T12:13:00.307Z,18.84
2023-05-19T12:14:00.421Z,18.86
2023-05-19T12:15:00.289Z,18.87
2023-05-19T12:16:00.344Z,18.90
2023-05-19T12:17:00.275Z,18.90
2023-05-19T12:18:00.396Z,18.89
2023-05-19T12:19:00.388Z,18.89
2023-05-19T12:20:00.252Z,18.89
2023-05-19T12:21:00.286Z,18.84
2023-05-19T12:22:01.262Z,18.87
2023-05-19T12:23:00.188Z,18.91
2023-05-19T12:24:00.160Z,18.97
2023-05-19T12:25:00.154Z,19.01
2023-05-19T12:26:00.154Z,19.02
2023-05-19T12:27:00.135Z,19.02
2023-05-19T12:28:00.187Z,19.02
2023-05-19T12:29:00.134Z,19.02
2023-05-19T12:30:00.147Z,19.06
2023-05-19T12:31:00.133Z,19.05
2023-05-19T12:32:00.180Z,19.02
2023-05-19T12:33:00.097Z,19.02
2023-05-19T12:34:00.083Z,18.99
2023-05-19T12:35:00.042Z,18.96
2023-05-19T12:36:00.051Z,18.94
2023-05-19T12:37:00.005Z,18.91
2023-05-19T12:38:00.153Z,18.87
2023-05-19T12:39:00.030Z,18.87
2023-05-19T12:39:59.986Z,18.89
2023-05-19T12:41:00.047Z,18.87
2023-05-19T12:41:59.987Z,18.87
2023-05-19T12:43:00.076Z,18.82
2023-05-19T12:43:59.950Z,18.74
2023-05-19T12:45:00.875Z,18.66
2023-05-19T12:45:59.968Z,18.66
2023-05-19T12:46:59.902Z,18.64
2023-05-19T12:47:59.952Z,18.64
2023-05-19T12:48:59.886Z,18.59
2023-05-19T12:49:59.939Z,18.54
2023-05-19T12:50:59.885Z,18.53
2023-05-19T12:52:01.096Z,18.49